Time;durP1;ratioP1;P1;durP2;ratioP2;P2;SDS_P1;SDS_P2;PMS_P1;PMS_P2;Temp;Humidity;BMP_temperature;BMP_pressure;BME280_temperature;BME280_humidity;BME280_pressure;Samples;Min_cycle;Max_cycle;Signal;HPM_P1;HPM_P2
2021/08/29 00:00:56;;;;;;;7.43;5.80;;;;;;;;;;5034960;28;20443;-74
2021/08/29 00:03:22;;;;;;;5.93;5.30;;;;;;;;;;5034838;28;20446;-75
2021/08/29 00:05:48;;;;;;;5.63;4.90;;;;;;;;;;5033146;28;20432;-74
2021/08/29 00:08:14;;;;;;;10.30;6.00;;;;;;;;;;5051572;28;20523;-74
2021/08/29 00:10:40;;;;;;;7.13;5.23;;;;;;;;;;5054744;28;20507;-74
2021/08/29 00:13:06;;;;;;;6.57;4.57;;;;;;;;;;5054819;28;20415;-74
2021/08/29 00:15:32;;;;;;;6.20;4.87;;;;;;;;;;5054776;28;20418;-73
2021/08/29 00:17:58;;;;;;;5.50;4.80;;;;;;;;;;5037703;28;21007;-74
2021/08/29 00:20:24;;;;;;;8.90;6.17;;;;;;;;;;5034793;28;20430;-74
2021/08/29 00:22:50;;;;;;;4.97;4.57;;;;;;;;;;5033663;28;20469;-74
2021/08/29 00:25:16;;;;;;;4.77;4.37;;;;;;;;;;5031130;28;20417;-75
2021/08/29 00:27:43;;;;;;;8.60;5.20;;;;;;;;;;5034021;28;20477;-73
2021/08/29 00:30:09;;;;;;;6.00;5.03;;;;;;;;;;5034353;28;20802;-74
2021/08/29 00:32:35;;;;;;;4.93;4.30;;;;;;;;;;5034056;28;20463;-74
2021/08/29 00:35:01;;;;;;;5.47;4.43;;;;;;;;;;5033758;28;20409;-74
2021/08/29 00:37:27;;;;;;;5.70;4.23;;;;;;;;;;5033817;28;20515;-73
2021/08/29 00:39:53;;;;;;;5.67;5.07;;;;;;;;;;5034514;28;20889;-74
2021/08/29 00:42:19;;;;;;;4.67;4.10;;;;;;;;;;5031535;28;20513;-76
2021/08/29 00:44:45;;;;;;;6.40;4.97;;;;;;;;;;5034493;28;20418;-74
2021/08/29 00:47:11;;;;;;;4.97;4.47;;;;;;;;;;5029147;28;20443;-74
2021/08/29 00:49:38;;;;;;;6.50;5.07;;;;;;;;;;5054203;28;20460;-73
2021/08/29 00:52:04;;;;;;;6.93;4.77;;;;;;;;;;5050610;28;20427;-74
2021/08/29 00:54:34;;;;;;;5.20;4.67;;;;;;;;;;5028767;28;20452;-74
2021/08/29 00:57:07;;;;;;;5.90;5.10;;;;;;;;;;5040536;28;20525;-75
2021/08/29 00:59:33;;;;;;;4.83;4.27;;;;;;;;;;5040441;28;20441;-74
2021/08/29 01:02:03;;;;;;;6.13;4.80;;;;;;;;;;5032976;28;20435;-74
2021/08/29 01:04:33;;;;;;;5.07;4.40;;;;;;;;;;5034133;28;20834;-75
2021/08/29 01:07:03;;;;;;;11.43;4.90;;;;;;;;;;5021572;28;20984;-74
2021/08/29 01:09:30;;;;;;;6.87;4.87;;;;;;;;;;5033897;28;20468;-74
2021/08/29 01:11:56;;;;;;;7.10;4.83;;;;;;;;;;5027073;28;20426;-73
2021/08/29 01:14:24;;;;;;;6.90;5.57;;;;;;;;;;5041973;28;20414;-73
2021/08/29 01:16:51;;;;;;;6.40;5.23;;;;;;;;;;5030795;28;20478;-75
2021/08/29 01:19:18;;;;;;;6.40;5.77;;;;;;;;;;5032122;28;20790;-75
2021/08/29 01:21:47;;;;;;;6.30;4.90;;;;;;;;;;5033752;28;20438;-75
2021/08/29 01:24:15;;;;;;;7.30;5.30;;;;;;;;;;5028808;28;20428;-74
2021/08/29 01:26:46;;;;;;;6.53;5.90;;;;;;;;;;5032973;28;20457;-75
2021/08/29 01:29:13;;;;;;;5.93;5.40;;;;;;;;;;5033596;28;20467;-73
2021/08/29 01:31:40;;;;;;;6.03;5.10;;;;;;;;;;5033295;28;20563;-74
2021/08/29 01:34:07;;;;;;;6.50;5.57;;;;;;;;;;5033481;28;20797;-74
2021/08/29 01:36:34;;;;;;;8.33;5.70;;;;;;;;;;5032757;28;21864;-74
2021/08/29 01:39:02;;;;;;;8.13;5.77;;;;;;;;;;5033213;28;20759;-75
2021/08/29 01:41:28;;;;;;;5.93;5.33;;;;;;;;;;5032752;28;20433;-74
2021/08/29 01:43:55;;;;;;;6.67;5.70;;;;;;;;;;5044117;28;20777;-75
2021/08/29 01:46:22;;;;;;;7.77;5.97;;;;;;;;;;5034134;28;20431;-73
2021/08/29 01:48:48;;;;;;;5.30;4.80;;;;;;;;;;5033261;28;20813;-74
2021/08/29 01:51:14;;;;;;;6.40;5.40;;;;;;;;;;5032766;28;20418;-75
2021/08/29 01:53:40;;;;;;;5.50;5.00;;;;;;;;;;5032671;28;20796;-73
2021/08/29 01:56:07;;;;;;;8.23;5.30;;;;;;;;;;5028933;28;20423;-75
2021/08/29 01:58:34;;;;;;;5.70;5.00;;;;;;;;;;5032818;28;20425;-75
2021/08/29 02:01:01;;;;;;;8.30;6.07;;;;;;;;;;5032690;28;21762;-75
2021/08/29 02:03:27;;;;;;;6.33;5.53;;;;;;;;;;5033141;28;20434;-75
2021/08/29 02:06:12;;;;;;;7.50;5.10;;;;;;;;;;5032664;28;20520;-75
2021/08/29 02:08:40;;;;;;;8.03;6.57;;;;;;;;;;5032532;28;20544;-74
2021/08/29 02:11:06;;;;;;;5.90;5.30;;;;;;;;;;5032721;28;20842;-74
2021/08/29 02:13:34;;;;;;;6.90;5.53;;;;;;;;;;5032721;28;20774;-74
2021/08/29 02:16:05;;;;;;;5.93;5.03;;;;;;;;;;5032528;28;20513;-75
2021/08/29 02:18:33;;;;;;;5.70;5.10;;;;;;;;;;5032365;28;20439;-73
2021/08/29 02:20:59;;;;;;;6.13;5.03;;;;;;;;;;5031098;28;20447;-74
2021/08/29 02:23:27;;;;;;;5.30;4.80;;;;;;;;;;5052902;28;20411;-73
2021/08/29 02:25:53;;;;;;;6.60;5.37;;;;;;;;;;5028993;28;20419;-74
2021/08/29 02:28:20;;;;;;;6.47;4.87;;;;;;;;;;5032608;28;20773;-74
2021/08/29 02:30:46;;;;;;;6.67;5.07;;;;;;;;;;5032737;28;20418;-74
2021/08/29 02:33:12;;;;;;;7.40;5.57;;;;;;;;;;5029954;28;20915;-73
2021/08/29 02:35:41;;;;;;;6.27;5.43;;;;;;;;;;5032774;28;20530;-74
2021/08/29 02:38:07;;;;;;;6.17;5.57;;;;;;;;;;5032136;28;20591;-72
2021/08/29 02:40:36;;;;;;;8.00;5.50;;;;;;;;;;5032417;28;20426;-74
2021/08/29 02:43:02;;;;;;;6.37;5.70;;;;;;;;;;5032533;28;20431;-74
2021/08/29 02:45:29;;;;;;;6.53;5.53;;;;;;;;;;5032830;28;20850;-74
2021/08/29 02:47:55;;;;;;;6.87;5.53;;;;;;;;;;5028791;28;20536;-75
2021/08/29 02:50:21;;;;;;;5.80;5.07;;;;;;;;;;5030984;28;20465;-74
2021/08/29 02:52:47;;;;;;;5.87;5.27;;;;;;;;;;5032274;28;20438;-76
2021/08/29 02:55:14;;;;;;;7.50;5.90;;;;;;;;;;5030100;28;20761;-75
2021/08/29 02:57:41;;;;;;;6.30;5.60;;;;;;;;;;5023735;28;20498;-74
2021/08/29 03:00:11;;;;;;;5.70;5.20;;;;;;;;;;5036414;28;20468;-75
2021/08/29 03:02:37;;;;;;;5.07;4.43;;;;;;;;;;5036095;28;20433;-75
2021/08/29 03:05:03;;;;;;;6.23;4.63;;;;;;;;;;5035741;28;20494;-74
2021/08/29 03:07:29;;;;;;;8.53;4.70;;;;;;;;;;5046730;28;20443;-75
2021/08/29 03:09:55;;;;;;;6.60;4.90;;;;;;;;;;5049945;28;20523;-75
2021/08/29 03:12:21;;;;;;;4.10;3.70;;;;;;;;;;5038058;28;20413;-75
2021/08/29 03:14:48;;;;;;;4.90;4.40;;;;;;;;;;5052931;28;20423;-75
2021/08/29 03:17:14;;;;;;;4.17;3.80;;;;;;;;;;5037553;28;20433;-72
2021/08/29 03:19:40;;;;;;;4.60;4.17;;;;;;;;;;5040085;28;20429;-73
2021/08/29 03:22:07;;;;;;;7.37;3.90;;;;;;;;;;5036012;28;20463;-75
2021/08/29 03:24:33;;;;;;;4.87;4.43;;;;;;;;;;5035811;28;20817;-74
2021/08/29 03:26:59;;;;;;;4.87;4.37;;;;;;;;;;5035156;28;20518;-74
2021/08/29 03:29:25;;;;;;;4.70;4.30;;;;;;;;;;5035441;28;20465;-74
2021/08/29 03:31:51;;;;;;;4.40;3.97;;;;;;;;;;5035953;28;20428;-74
2021/08/29 03:34:18;;;;;;;3.70;3.40;;;;;;;;;;5035397;28;20492;-74
2021/08/29 03:36:44;;;;;;;4.23;3.87;;;;;;;;;;5035310;28;20439;-75
2021/08/29 03:39:14;;;;;;;4.17;3.87;;;;;;;;;;5035182;28;20836;-74
2021/08/29 03:41:40;;;;;;;3.70;3.40;;;;;;;;;;5035190;28;20439;-74
2021/08/29 03:44:08;;;;;;;4.63;4.23;;;;;;;;;;5035437;28;20419;-74
2021/08/29 03:46:34;;;;;;;4.20;3.80;;;;;;;;;;5033960;28;20448;-73
2021/08/29 03:49:00;;;;;;;4.10;3.70;;;;;;;;;;5047958;28;21002;-74
2021/08/29 03:51:27;;;;;;;4.63;4.10;;;;;;;;;;5036062;28;20461;-74
2021/08/29 03:53:53;;;;;;;4.97;3.20;;;;;;;;;;5034904;28;20479;-74
2021/08/29 03:56:19;;;;;;;4.37;3.97;;;;;;;;;;5031378;28;20504;-74
2021/08/29 03:58:45;;;;;;;4.67;4.10;;;;;;;;;;5042752;28;20793;-76
2021/08/29 04:01:11;;;;;;;5.53;3.93;;;;;;;;;;5034796;28;20437;-74
2021/08/29 04:03:37;;;;;;;4.10;3.70;;;;;;;;;;5035127;28;20422;-75
2021/08/29 04:06:04;;;;;;;4.30;3.90;;;;;;;;;;5029730;28;20440;-75
2021/08/29 04:08:42;;;;;;;4.90;4.17;;;;;;;;;;5033882;28;20492;-75
2021/08/29 04:11:09;;;;;;;4.40;4.00;;;;;;;;;;5034846;28;20491;-75
2021/08/29 04:13:36;;;;;;;5.70;4.33;;;;;;;;;;5035107;28;20445;-75
2021/08/29 04:16:03;;;;;;;5.67;4.00;;;;;;;;;;5034567;28;20933;-75
2021/08/29 04:18:32;;;;;;;4.70;4.30;;;;;;;;;;5034356;28;20497;-76
2021/08/29 04:20:58;;;;;;;4.90;4.50;;;;;;;;;;5034180;28;20747;-75
2021/08/29 04:23:24;;;;;;;5.60;4.90;;;;;;;;;;5034318;28;20487;-75
2021/08/29 04:25:50;;;;;;;5.33;4.83;;;;;;;;;;5033032;28;20484;-76
2021/08/29 04:28:16;;;;;;;7.53;4.27;;;;;;;;;;5034086;28;20499;-75
2021/08/29 04:30:43;;;;;;;4.40;4.00;;;;;;;;;;5034467;28;20496;-75
2021/08/29 04:33:09;;;;;;;5.60;5.10;;;;;;;;;;5034600;28;20847;-75
2021/08/29 04:35:35;;;;;;;5.80;5.30;;;;;;;;;;5033873;28;20433;-74
2021/08/29 04:38:01;;;;;;;5.27;4.77;;;;;;;;;;5035871;28;20442;-74
2021/08/29 04:40:27;;;;;;;4.87;4.37;;;;;;;;;;5033753;28;20418;-74
2021/08/29 04:42:53;;;;;;;4.40;4.00;;;;;;;;;;5027706;28;20424;-74
2021/08/29 04:45:19;;;;;;;5.17;4.67;;;;;;;;;;5054622;28;20880;-75
2021/08/29 04:47:45;;;;;;;4.30;3.90;;;;;;;;;;5023535;28;20445;-73
2021/08/29 04:50:11;;;;;;;5.20;4.37;;;;;;;;;;5031740;28;20457;-73
2021/08/29 04:52:37;;;;;;;4.90;4.40;;;;;;;;;;5035877;28;20420;-75
2021/08/29 04:55:03;;;;;;;4.67;4.27;;;;;;;;;;5034174;28;20722;-74
2021/08/29 04:57:29;;;;;;;4.67;4.27;;;;;;;;;;5028069;28;20518;-73
2021/08/29 04:59:55;;;;;;;5.10;4.60;;;;;;;;;;5033864;28;20418;-75
2021/08/29 05:02:21;;;;;;;6.43;3.90;;;;;;;;;;5033610;28;20488;-74
2021/08/29 05:04:47;;;;;;;6.33;4.40;;;;;;;;;;5033896;28;20926;-75
2021/08/29 05:07:13;;;;;;;5.70;4.60;;;;;;;;;;5033286;28;20481;-75
2021/08/29 05:09:39;;;;;;;4.77;4.27;;;;;;;;;;5033828;28;20883;-73
2021/08/29 05:12:05;;;;;;;7.57;5.20;;;;;;;;;;5032029;28;20917;-74
2021/08/29 05:14:31;;;;;;;5.30;4.80;;;;;;;;;;5033991;28;20922;-74
2021/08/29 05:16:57;;;;;;;4.83;4.40;;;;;;;;;;5033257;28;20482;-74
2021/08/29 05:19:23;;;;;;;4.97;4.47;;;;;;;;;;5033497;28;20414;-74
2021/08/29 05:21:49;;;;;;;5.50;4.90;;;;;;;;;;5032899;28;20813;-74
2021/08/29 05:24:15;;;;;;;5.60;5.10;;;;;;;;;;5033442;28;20472;-75
2021/08/29 05:26:41;;;;;;;5.13;4.47;;;;;;;;;;5026666;28;20441;-74
2021/08/29 05:29:07;;;;;;;5.17;4.67;;;;;;;;;;5029537;28;20472;-73
2021/08/29 05:31:33;;;;;;;5.40;4.60;;;;;;;;;;5020373;28;20496;-74
2021/08/29 05:33:59;;;;;;;6.37;5.07;;;;;;;;;;5033560;28;20410;-74
2021/08/29 05:36:25;;;;;;;4.90;4.50;;;;;;;;;;5033198;28;20430;-74
2021/08/29 05:38:51;;;;;;;5.67;5.17;;;;;;;;;;5032833;28;20421;-74
2021/08/29 05:41:17;;;;;;;5.53;4.70;;;;;;;;;;5033421;28;20430;-74
2021/08/29 05:43:43;;;;;;;4.60;4.20;;;;;;;;;;5032897;28;20418;-74
2021/08/29 05:46:09;;;;;;;5.20;4.70;;;;;;;;;;5030003;28;20422;-74
2021/08/29 05:48:35;;;;;;;7.10;5.00;;;;;;;;;;5032463;28;20933;-74
2021/08/29 05:51:01;;;;;;;4.73;4.30;;;;;;;;;;5033019;28;20430;-74
2021/08/29 05:53:27;;;;;;;5.73;5.23;;;;;;;;;;5028663;28;20423;-74
2021/08/29 05:55:55;;;;;;;6.70;4.73;;;;;;;;;;5026289;28;20444;-74
2021/08/29 05:58:21;;;;;;;6.00;4.67;;;;;;;;;;5026986;28;20454;-74
2021/08/29 06:00:47;;;;;;;5.60;5.10;;;;;;;;;;5033157;28;20762;-74
2021/08/29 06:03:13;;;;;;;4.90;4.50;;;;;;;;;;5033112;28;20422;-74
2021/08/29 06:05:39;;;;;;;5.00;4.50;;;;;;;;;;5032583;28;20809;-75
2021/08/29 06:08:05;;;;;;;5.27;4.40;;;;;;;;;;5039115;28;20535;-75
2021/08/29 06:10:31;;;;;;;6.33;3.70;;;;;;;;;;5046035;28;20514;-75
2021/08/29 06:12:57;;;;;;;5.17;4.67;;;;;;;;;;5033088;28;20535;-75
2021/08/29 06:15:23;;;;;;;5.90;4.70;;;;;;;;;;5032750;28;20423;-75
2021/08/29 06:17:49;;;;;;;4.77;4.37;;;;;;;;;;5032565;28;20449;-75
2021/08/29 06:20:15;;;;;;;5.00;4.50;;;;;;;;;;5032409;28;20423;-75
2021/08/29 06:22:41;;;;;;;5.77;4.00;;;;;;;;;;5032470;28;20433;-75
2021/08/29 06:25:07;;;;;;;3.90;3.60;;;;;;;;;;5032742;28;20438;-75
2021/08/29 06:27:33;;;;;;;4.77;4.13;;;;;;;;;;5030385;28;20553;-74
2021/08/29 06:29:59;;;;;;;11.30;3.77;;;;;;;;;;5032482;28;20552;-74
2021/08/29 06:32:25;;;;;;;4.40;4.00;;;;;;;;;;5035521;28;20417;-74
2021/08/29 06:34:51;;;;;;;5.17;4.60;;;;;;;;;;5025995;28;20908;-74
2021/08/29 06:37:17;;;;;;;4.67;4.23;;;;;;;;;;5028894;28;20448;-74
2021/08/29 06:39:43;;;;;;;5.30;4.80;;;;;;;;;;5036851;28;20439;-73
2021/08/29 06:42:09;;;;;;;5.37;4.33;;;;;;;;;;5036612;28;20510;-74
2021/08/29 06:44:35;;;;;;;4.53;4.13;;;;;;;;;;5036433;28;20922;-74
2021/08/29 06:47:01;;;;;;;4.53;4.13;;;;;;;;;;5035998;28;20455;-74
2021/08/29 06:49:27;;;;;;;4.87;4.30;;;;;;;;;;5036751;28;20462;-73
2021/08/29 06:51:53;;;;;;;5.20;4.10;;;;;;;;;;5035994;28;20783;-74
2021/08/29 06:54:19;;;;;;;5.03;4.53;;;;;;;;;;5036696;28;20412;-75
2021/08/29 06:56:45;;;;;;;4.50;4.10;;;;;;;;;;5038614;28;20451;-75
2021/08/29 06:59:11;;;;;;;5.83;4.30;;;;;;;;;;5032192;28;20431;-74
2021/08/29 07:01:37;;;;;;;4.57;4.13;;;;;;;;;;5036205;28;20923;-75
2021/08/29 07:04:03;;;;;;;5.20;4.40;;;;;;;;;;5036718;28;20573;-75
2021/08/29 07:06:29;;;;;;;4.50;4.10;;;;;;;;;;5035035;28;20958;-73
2021/08/29 07:08:55;;;;;;;4.50;4.10;;;;;;;;;;5035419;28;20465;-74
2021/08/29 07:11:21;;;;;;;5.00;4.47;;;;;;;;;;5035861;28;20460;-75
2021/08/29 07:13:47;;;;;;;4.87;4.40;;;;;;;;;;5035959;28;20430;-75
2021/08/29 07:16:14;;;;;;;5.80;4.50;;;;;;;;;;5045103;28;20429;-74
2021/08/29 07:18:40;;;;;;;4.77;4.23;;;;;;;;;;5050285;28;20424;-73
2021/08/29 07:21:06;;;;;;;4.20;3.80;;;;;;;;;;5035768;28;20415;-74
2021/08/29 07:23:32;;;;;;;3.93;3.63;;;;;;;;;;5034207;28;20422;-74
2021/08/29 07:25:58;;;;;;;3.83;3.43;;;;;;;;;;5035521;28;20436;-74
2021/08/29 07:28:24;;;;;;;3.70;3.40;;;;;;;;;;5029011;28;20485;-75
2021/08/29 07:30:50;;;;;;;3.40;3.00;;;;;;;;;;5037884;28;20524;-75
2021/08/29 07:33:16;;;;;;;3.90;3.03;;;;;;;;;;5034025;28;20424;-74
2021/08/29 07:35:42;;;;;;;3.10;2.80;;;;;;;;;;5033917;28;20434;-75
2021/08/29 07:38:08;;;;;;;3.43;3.13;;;;;;;;;;5055509;28;20768;-75
2021/08/29 07:40:34;;;;;;;4.00;3.60;;;;;;;;;;5045899;28;20435;-74
2021/08/29 07:43:00;;;;;;;3.20;2.87;;;;;;;;;;5051008;28;20419;-74
2021/08/29 07:45:26;;;;;;;3.40;3.10;;;;;;;;;;5043644;28;20432;-74
2021/08/29 07:47:53;;;;;;;3.20;2.87;;;;;;;;;;5045093;28;20499;-74
2021/08/29 07:50:20;;;;;;;2.83;2.53;;;;;;;;;;5055294;28;20470;-75
2021/08/29 07:52:46;;;;;;;3.17;2.70;;;;;;;;;;5051593;28;20411;-72
2021/08/29 07:55:12;;;;;;;3.40;3.10;;;;;;;;;;5055124;28;20418;-74
2021/08/29 07:57:38;;;;;;;3.33;2.93;;;;;;;;;;5034697;28;20433;-73
2021/08/29 08:00:05;;;;;;;3.10;2.80;;;;;;;;;;5035095;28;20465;-73
2021/08/29 08:02:31;;;;;;;4.40;2.80;;;;;;;;;;5033733;28;20901;-73
2021/08/29 08:04:57;;;;;;;3.77;2.70;;;;;;;;;;5035053;28;20519;-73
2021/08/29 08:07:23;;;;;;;2.80;2.50;;;;;;;;;;5034908;28;20529;-74
2021/08/29 08:09:49;;;;;;;3.33;3.00;;;;;;;;;;5035194;28;20502;-73
2021/08/29 08:12:15;;;;;;;3.13;2.67;;;;;;;;;;5034896;28;20860;-74
2021/08/29 08:14:41;;;;;;;3.30;3.00;;;;;;;;;;5034957;28;20415;-73
2021/08/29 08:17:08;;;;;;;3.87;3.47;;;;;;;;;;5034201;28;20914;-74
2021/08/29 08:19:34;;;;;;;4.50;4.10;;;;;;;;;;5034801;28;20510;-75
2021/08/29 08:22:00;;;;;;;2.90;2.60;;;;;;;;;;5050979;28;20954;-74
2021/08/29 08:24:26;;;;;;;2.83;2.53;;;;;;;;;;5054917;28;20419;-73
2021/08/29 08:26:52;;;;;;;3.03;2.73;;;;;;;;;;5028518;28;20462;-73
2021/08/29 08:29:18;;;;;;;2.80;2.30;;;;;;;;;;5029836;28;20567;-75
2021/08/29 08:31:44;;;;;;;3.33;2.87;;;;;;;;;;5030923;28;21251;-74
2021/08/29 08:34:10;;;;;;;2.70;2.40;;;;;;;;;;5035458;28;20458;-75
2021/08/29 08:36:36;;;;;;;3.30;2.53;;;;;;;;;;5030360;28;21174;-74
2021/08/29 08:39:03;;;;;;;2.60;2.30;;;;;;;;;;5030605;28;20432;-75
2021/08/29 08:41:29;;;;;;;2.80;2.30;;;;;;;;;;5028023;28;20424;-75
2021/08/29 08:43:55;;;;;;;2.50;2.30;;;;;;;;;;5030475;28;20463;-74
2021/08/29 08:46:22;;;;;;;4.07;3.10;;;;;;;;;;5044704;28;20423;-75
2021/08/29 08:48:51;;;;;;;3.50;3.20;;;;;;;;;;5036638;28;20434;-75
2021/08/29 08:51:28;;;;;;;2.90;2.70;;;;;;;;;;5050334;28;20480;-75
2021/08/29 08:53:54;;;;;;;2.90;2.60;;;;;;;;;;5040886;28;20532;-75
2021/08/29 08:56:20;;;;;;;4.17;3.10;;;;;;;;;;5040065;28;20428;-75
2021/08/29 08:58:46;;;;;;;3.23;2.97;;;;;;;;;;5029909;28;20424;-75
2021/08/29 09:01:13;;;;;;;3.30;3.00;;;;;;;;;;5030517;28;20784;-75
2021/08/29 09:03:39;;;;;;;3.50;3.20;;;;;;;;;;5030247;28;20462;-75
2021/08/29 09:06:06;;;;;;;3.07;2.77;;;;;;;;;;5029920;28;20444;-75
2021/08/29 09:08:34;;;;;;;3.10;2.80;;;;;;;;;;5029981;28;20421;-76
2021/08/29 09:11:00;;;;;;;2.70;2.20;;;;;;;;;;5029838;28;20474;-76
2021/08/29 09:13:26;;;;;;;2.83;2.40;;;;;;;;;;5030204;28;20503;-76
2021/08/29 09:16:15;;;;;;;2.53;2.33;;;;;;;;;;5029908;28;21035;-75
2021/08/29 09:18:47;;;;;;;2.93;2.63;;;;;;;;;;5029780;28;20427;-76
2021/08/29 09:21:18;;;;;;;3.10;2.80;;;;;;;;;;5029582;28;20433;-75
2021/08/29 09:23:44;;;;;;;2.57;2.37;;;;;;;;;;5029991;28;20494;-74
2021/08/29 09:26:11;;;;;;;3.00;2.57;;;;;;;;;;5029703;28;20844;-75
2021/08/29 09:28:38;;;;;;;4.70;4.13;;;;;;;;;;5029411;28;20781;-75
2021/08/29 09:31:04;;;;;;;5.77;4.43;;;;;;;;;;5029751;28;20425;-74
2021/08/29 09:33:33;;;;;;;3.53;3.23;;;;;;;;;;5029638;28;20408;-74
2021/08/29 09:35:59;;;;;;;2.30;1.90;;;;;;;;;;5029696;28;20448;-74
2021/08/29 09:38:25;;;;;;;4.10;3.70;;;;;;;;;;5027673;28;20452;-74
2021/08/29 09:40:51;;;;;;;3.00;2.70;;;;;;;;;;5033048;28;20451;-74
2021/08/29 09:43:18;;;;;;;2.10;1.87;;;;;;;;;;5049581;28;20447;-75
2021/08/29 09:45:45;;;;;;;2.40;2.20;;;;;;;;;;5029376;28;20429;-74
2021/08/29 09:48:13;;;;;;;2.87;2.57;;;;;;;;;;5029100;28;20567;-73
2021/08/29 09:50:41;;;;;;;2.40;1.80;;;;;;;;;;5019819;28;20467;-74
2021/08/29 09:53:10;;;;;;;3.00;1.97;;;;;;;;;;5042992;28;20436;-75
2021/08/29 09:55:38;;;;;;;2.20;1.60;;;;;;;;;;5029255;28;20408;-74
2021/08/29 09:58:23;;;;;;;2.00;1.70;;;;;;;;;;5038147;28;20489;-75
2021/08/29 10:01:09;;;;;;;2.43;2.23;;;;;;;;;;5038691;28;20419;-74
2021/08/29 10:03:55;;;;;;;2.60;2.30;;;;;;;;;;5035692;28;20438;-75
2021/08/29 10:06:24;;;;;;;2.07;1.70;;;;;;;;;;5048751;28;20447;-74
2021/08/29 10:08:51;;;;;;;2.00;1.60;;;;;;;;;;5038285;28;20435;-74
2021/08/29 10:11:19;;;;;;;2.20;1.80;;;;;;;;;;5049464;28;20412;-73
2021/08/29 10:13:45;;;;;;;2.00;1.60;;;;;;;;;;5028074;28;20524;-74
2021/08/29 10:16:11;;;;;;;2.10;1.60;;;;;;;;;;5029498;28;20420;-73
2021/08/29 10:18:39;;;;;;;2.20;1.90;;;;;;;;;;5028953;28;20789;-74
2021/08/29 10:21:05;;;;;;;2.00;1.70;;;;;;;;;;5029503;28;20459;-73
2021/08/29 10:23:32;;;;;;;2.40;1.97;;;;;;;;;;5029094;28;20428;-73
2021/08/29 10:25:58;;;;;;;2.17;1.97;;;;;;;;;;5029241;28;20586;-74
2021/08/29 10:28:27;;;;;;;2.60;2.10;;;;;;;;;;5028435;28;20448;-74
2021/08/29 10:30:56;;;;;;;2.20;1.97;;;;;;;;;;5028997;28;20514;-72
2021/08/29 10:33:22;;;;;;;2.53;2.20;;;;;;;;;;5029020;28;20503;-72
2021/08/29 10:35:50;;;;;;;3.50;2.20;;;;;;;;;;5028945;28;20774;-75
2021/08/29 10:38:17;;;;;;;2.47;2.17;;;;;;;;;;5028776;28;20870;-73
2021/08/29 10:40:46;;;;;;;2.40;2.10;;;;;;;;;;5028785;28;20444;-72
2021/08/29 10:43:12;;;;;;;2.50;2.00;;;;;;;;;;5027238;28;20570;-73
2021/08/29 10:45:38;;;;;;;2.60;2.30;;;;;;;;;;5029991;28;20440;-73
2021/08/29 10:48:04;;;;;;;3.10;2.80;;;;;;;;;;5030002;28;20516;-72
2021/08/29 10:50:31;;;;;;;2.90;2.60;;;;;;;;;;5028475;28;20491;-72
2021/08/29 10:52:57;;;;;;;3.70;3.30;;;;;;;;;;5022181;28;20846;-73
2021/08/29 10:55:28;;;;;;;4.37;3.97;;;;;;;;;;5044462;28;20460;-72
2021/08/29 10:58:01;;;;;;;5.47;4.37;;;;;;;;;;5028111;28;20859;-73
2021/08/29 11:00:28;;;;;;;5.27;4.83;;;;;;;;;;5015686;28;20412;-73
2021/08/29 11:02:54;;;;;;;5.77;5.27;;;;;;;;;;5027214;28;20503;-73
2021/08/29 11:05:29;;;;;;;5.33;4.83;;;;;;;;;;5028819;28;20471;-73
2021/08/29 11:07:56;;;;;;;6.47;5.87;;;;;;;;;;5027751;28;20459;-74
2021/08/29 11:10:37;;;;;;;6.03;5.53;;;;;;;;;;5028720;28;20464;-74
2021/08/29 11:13:23;;;;;;;5.97;5.47;;;;;;;;;;5028510;28;20478;-73
2021/08/29 11:15:49;;;;;;;7.63;5.87;;;;;;;;;;5028658;28;20409;-74
2021/08/29 11:18:15;;;;;;;5.83;5.33;;;;;;;;;;5028761;28;20458;-74
2021/08/29 11:20:58;;;;;;;5.90;5.30;;;;;;;;;;5032248;28;20424;-74
2021/08/29 11:23:43;;;;;;;6.10;5.60;;;;;;;;;;5021308;28;20412;-73
2021/08/29 11:26:28;;;;;;;6.13;5.50;;;;;;;;;;5031793;28;20436;-73
2021/08/29 11:28:54;;;;;;;6.77;6.00;;;;;;;;;;5031763;28;20474;-73
2021/08/29 11:31:40;;;;;;;6.17;5.30;;;;;;;;;;5031978;28;20803;-73
2021/08/29 11:34:07;;;;;;;6.20;5.60;;;;;;;;;;5021716;28;20436;-73
2021/08/29 11:36:33;;;;;;;5.90;5.40;;;;;;;;;;5031462;28;20448;-72
2021/08/29 11:38:59;;;;;;;6.80;6.20;;;;;;;;;;5031224;28;20976;-73
2021/08/29 11:41:25;;;;;;;6.27;5.77;;;;;;;;;;5032274;28;20775;-73
2021/08/29 11:43:52;;;;;;;6.93;5.50;;;;;;;;;;5031609;28;20492;-74
2021/08/29 11:46:26;;;;;;;6.77;5.77;;;;;;;;;;5030696;28;20466;-74
2021/08/29 11:48:57;;;;;;;7.33;6.53;;;;;;;;;;5030813;28;20420;-74
2021/08/29 11:51:26;;;;;;;5.53;5.03;;;;;;;;;;5031711;28;20507;-73
2021/08/29 11:53:52;;;;;;;6.13;5.53;;;;;;;;;;5031400;28;20913;-73
2021/08/29 11:56:19;;;;;;;6.43;5.83;;;;;;;;;;5031721;28;20932;-73
2021/08/29 11:58:45;;;;;;;6.33;5.27;;;;;;;;;;5024006;28;20782;-73
2021/08/29 12:01:11;;;;;;;6.70;5.40;;;;;;;;;;5051134;28;20427;-74
2021/08/29 12:03:38;;;;;;;6.13;5.60;;;;;;;;;;5031536;28;20451;-73
2021/08/29 12:06:23;;;;;;;5.67;5.17;;;;;;;;;;5031446;28;20440;-74
2021/08/29 12:08:49;;;;;;;6.93;5.00;;;;;;;;;;5030724;28;20428;-73
2021/08/29 12:11:16;;;;;;;5.60;5.10;;;;;;;;;;5031507;28;20413;-73
2021/08/29 12:13:42;;;;;;;5.63;4.67;;;;;;;;;;5031180;28;20421;-73
2021/08/29 12:16:09;;;;;;;4.33;3.93;;;;;;;;;;5031304;28;20408;-74
2021/08/29 12:18:39;;;;;;;4.43;3.97;;;;;;;;;;5021035;28;20424;-74
2021/08/29 12:21:06;;;;;;;5.20;4.23;;;;;;;;;;5045465;28;20409;-73
2021/08/29 12:23:33;;;;;;;4.40;4.00;;;;;;;;;;5030198;28;20420;-74
2021/08/29 12:26:00;;;;;;;4.27;3.87;;;;;;;;;;5026971;28;20546;-75
2021/08/29 12:28:27;;;;;;;6.10;5.60;;;;;;;;;;5032497;28;20448;-73
2021/08/29 12:30:55;;;;;;;5.10;4.70;;;;;;;;;;5030790;28;20460;-72
2021/08/29 12:33:21;;;;;;;5.47;4.97;;;;;;;;;;5030643;28;20442;-73
2021/08/29 12:35:48;;;;;;;5.47;5.00;;;;;;;;;;5030704;28;20503;-74
2021/08/29 12:38:21;;;;;;;5.70;5.20;;;;;;;;;;5030247;28;20484;-74
2021/08/29 12:40:48;;;;;;;6.03;5.53;;;;;;;;;;5023388;28;20890;-72
2021/08/29 12:43:14;;;;;;;6.73;6.13;;;;;;;;;;5039111;28;20428;-74
2021/08/29 12:45:40;;;;;;;8.13;7.37;;;;;;;;;;5030403;28;20419;-74
2021/08/29 12:48:08;;;;;;;14.30;12.53;;;;;;;;;;5029565;28;20452;-74
2021/08/29 12:50:38;;;;;;;7.93;7.13;;;;;;;;;;5030472;28;21158;-73
2021/08/29 12:53:06;;;;;;;11.63;10.43;;;;;;;;;;5030617;28;20432;-74
2021/08/29 12:55:33;;;;;;;8.20;7.50;;;;;;;;;;5033091;28;20408;-73
2021/08/29 12:58:00;;;;;;;8.17;7.37;;;;;;;;;;5037869;28;20457;-74
2021/08/29 13:00:42;;;;;;;8.70;6.67;;;;;;;;;;5043405;28;20416;-73
2021/08/29 13:03:09;;;;;;;7.60;6.90;;;;;;;;;;5030384;28;20430;-74
2021/08/29 13:05:42;;;;;;;7.87;7.17;;;;;;;;;;5028761;28;20957;-73
2021/08/29 13:08:09;;;;;;;7.20;6.50;;;;;;;;;;5027973;28;21068;-74
2021/08/29 13:10:35;;;;;;;11.63;9.53;;;;;;;;;;5029993;28;20463;-73
2021/08/29 13:13:11;;;;;;;7.10;6.50;;;;;;;;;;5020191;28;20432;-75
2021/08/29 13:15:39;;;;;;;8.70;7.90;;;;;;;;;;5050133;28;20411;-73
2021/08/29 13:18:06;;;;;;;7.80;7.10;;;;;;;;;;5020228;28;20996;-72
2021/08/29 13:20:36;;;;;;;7.83;7.13;;;;;;;;;;5029839;28;20413;-73
2021/08/29 13:23:02;;;;;;;8.07;7.37;;;;;;;;;;5029414;28;20786;-73
2021/08/29 13:25:29;;;;;;;12.23;7.93;;;;;;;;;;5029934;28;20416;-73
2021/08/29 13:27:59;;;;;;;17.43;14.10;;;;;;;;;;5029383;28;21046;-73
2021/08/29 13:30:33;;;;;;;9.00;8.10;;;;;;;;;;5029706;28;20519;-73
2021/08/29 13:33:00;;;;;;;11.00;9.93;;;;;;;;;;5029659;28;20432;-72
2021/08/29 13:35:31;;;;;;;23.23;17.67;;;;;;;;;;5044227;28;20411;-73
2021/08/29 13:37:58;;;;;;;11.30;10.10;;;;;;;;;;5027981;28;20459;-74
2021/08/29 13:40:26;;;;;;;11.30;9.90;;;;;;;;;;5025311;28;20456;-73
2021/08/29 13:43:00;;;;;;;14.07;11.43;;;;;;;;;;5022765;28;20519;-75
2021/08/29 13:45:27;;;;;;;11.57;9.70;;;;;;;;;;5029657;28;20524;-74
2021/08/29 13:47:56;;;;;;;13.60;10.73;;;;;;;;;;5029280;28;20490;-74
2021/08/29 13:50:22;;;;;;;15.17;12.27;;;;;;;;;;5029265;28;20472;-74
2021/08/29 13:52:48;;;;;;;14.40;12.50;;;;;;;;;;5025244;28;20441;-74
2021/08/29 13:55:15;;;;;;;17.20;11.53;;;;;;;;;;5044171;28;20421;-73
2021/08/29 13:57:41;;;;;;;16.63;13.00;;;;;;;;;;5029155;28;20475;-74
2021/08/29 14:00:08;;;;;;;14.37;12.60;;;;;;;;;;5029405;28;20919;-72
2021/08/29 14:02:34;;;;;;;15.00;13.40;;;;;;;;;;5026768;28;20432;-73
2021/08/29 14:05:01;;;;;;;16.37;13.70;;;;;;;;;;5044717;28;20438;-73
2021/08/29 14:07:27;;;;;;;15.50;11.87;;;;;;;;;;5037827;28;20505;-73
2021/08/29 14:09:53;;;;;;;16.30;13.33;;;;;;;;;;5029148;28;20471;-73
2021/08/29 14:12:19;;;;;;;15.93;13.27;;;;;;;;;;5026597;28;20894;-74
2021/08/29 14:14:44;;;;;;;19.60;13.30;;;;;;;;;;5018469;28;20466;-74
2021/08/29 14:17:11;;;;;;;15.50;13.07;;;;;;;;;;5028520;28;20456;-74
2021/08/29 14:19:37;;;;;;;17.30;13.83;;;;;;;;;;5029515;28;20422;-74
2021/08/29 14:22:03;;;;;;;17.97;14.00;;;;;;;;;;5028457;28;20436;-74
2021/08/29 14:24:29;;;;;;;17.37;13.60;;;;;;;;;;5028844;28;20464;-74
2021/08/29 14:26:55;;;;;;;17.17;13.57;;;;;;;;;;5028884;28;20432;-74
2021/08/29 14:29:21;;;;;;;16.90;13.37;;;;;;;;;;5028835;28;20475;-75
2021/08/29 14:31:47;;;;;;;18.17;14.33;;;;;;;;;;5028523;28;20428;-75
2021/08/29 14:34:13;;;;;;;16.37;13.80;;;;;;;;;;5028991;28;20785;-74
2021/08/29 14:36:39;;;;;;;14.70;13.13;;;;;;;;;;5028563;28;20941;-75
2021/08/29 14:39:05;;;;;;;21.73;16.10;;;;;;;;;;5029109;28;20788;-74
2021/08/29 14:41:31;;;;;;;20.20;17.00;;;;;;;;;;5029164;28;20420;-74